Time;durP1;ratioP1;P1;durP2;ratioP2;P2;SDS_P1;SDS_P2;PMS_P1;PMS_P2;Temp;Humidity;BMP_temperature;BMP_pressure;BME280_temperature;BME280_humidity;BME280_pressure;Samples;Min_cycle;Max_cycle;Signal;HPM_P1;HPM_P2
2023/12/16 00:00:06;;;;;;;1.10;1.00;;;17.30;63.20;;;;;;5054576;28;20613;-85
2023/12/16 00:02:31;;;;;;;1.30;1.10;;;17.30;63.60;;;;;;5016674;28;20186;-83
2023/12/16 00:04:57;;;;;;;1.88;1.20;;;17.30;63.20;;;;;;5034623;28;20561;-82
2023/12/16 00:07:23;;;;;;;1.50;1.17;;;17.30;63.30;;;;;;5035595;28;20166;-83
2023/12/16 00:12:15;;;;;;;1.20;1.10;;;17.30;63.40;;;;;;5160721;23;20279;-84
2023/12/16 00:14:41;;;;;;;1.95;1.00;;;17.30;63.80;;;;;;4995190;28;20164;-85
2023/12/16 00:17:07;;;;;;;1.58;1.10;;;17.20;63.70;;;;;;4994646;28;20172;-83
2023/12/16 00:19:34;;;;;;;1.27;0.98;;;17.20;63.10;;;;;;4946867;28;20173;-84
2023/12/16 00:22:00;;;;;;;1.40;1.10;;;17.30;63.40;;;;;;4994888;28;20172;-84
2023/12/16 00:24:27;;;;;;;1.50;1.20;;;17.30;62.90;;;;;;4978780;28;20654;-83
2023/12/16 00:26:53;;;;;;;1.70;1.20;;;17.30;63.10;;;;;;4994191;28;20240;-85
2023/12/16 00:29:19;;;;;;;1.13;0.90;;;17.30;63.10;;;;;;4994241;28;20145;-85
2023/12/16 00:31:45;;;;;;;1.27;1.02;;;17.30;63.60;;;;;;4977343;28;20156;-85
2023/12/16 00:34:12;;;;;;;1.17;0.98;;;17.20;63.80;;;;;;4978577;28;20161;-84
2023/12/16 00:36:42;;;;;;;0.95;0.90;;;17.20;63.60;;;;;;4978365;28;20161;-83
2023/12/16 00:39:09;;;;;;;1.58;1.20;;;17.20;63.50;;;;;;4961705;28;20183;-86
2023/12/16 00:41:36;;;;;;;1.02;0.93;;;17.30;63.60;;;;;;4978404;28;20642;-84
2023/12/16 00:44:02;;;;;;;1.80;1.30;;;17.20;63.70;;;;;;4975185;28;20240;-83
2023/12/16 00:49:04;;;;;;;1.48;1.20;;;17.20;63.50;;;;;;5181770;23;20642;-83
2023/12/16 00:51:29;;;;;;;2.65;1.10;;;17.20;63.80;;;;;;5040029;28;20173;-83
2023/12/16 00:53:55;;;;;;;1.05;0.90;;;17.20;63.40;;;;;;5056550;28;20213;-84
2023/12/16 00:56:21;;;;;;;1.80;1.27;;;17.30;63.60;;;;;;5035831;28;20170;-83
2023/12/16 00:58:48;;;;;;;1.27;1.00;;;17.30;63.60;;;;;;5048657;28;20648;-84
2023/12/16 01:01:14;;;;;;;1.00;0.95;;;17.20;63.90;;;;;;5036363;28;20170;-84
2023/12/16 01:03:41;;;;;;;1.55;1.25;;;17.20;63.70;;;;;;5072337;28;20741;-86
2023/12/16 01:06:07;;;;;;;2.42;1.20;;;17.30;63.10;;;;;;5043111;28;20205;-82
2023/12/16 01:08:33;;;;;;;0.80;0.80;;;17.30;63.60;;;;;;5035148;28;20172;-85
2023/12/16 01:10:59;;;;;;;2.08;1.10;;;17.20;63.50;;;;;;5052943;28;20150;-85
2023/12/16 01:13:25;;;;;;;1.55;1.10;;;17.10;63.70;;;;;;5053308;28;20161;-85
2023/12/16 01:15:55;;;;;;;2.10;1.30;;;17.20;63.60;;;;;;5036695;28;20178;-86
2023/12/16 01:18:21;;;;;;;1.67;1.02;;;17.20;63.70;;;;;;5019315;28;20659;-84
2023/12/16 01:20:52;;;;;;;1.15;0.90;;;17.20;63.70;;;;;;5036530;28;20169;-83
2023/12/16 01:23:20;;;;;;;1.67;1.13;;;17.10;63.70;;;;;;5048062;28;20610;-84
2023/12/16 01:25:46;;;;;;;1.65;1.00;;;17.20;63.80;;;;;;5053247;28;20570;-86
2023/12/16 01:28:15;;;;;;;0.95;0.85;;;17.20;63.80;;;;;;5071678;28;20612;-85
2023/12/16 01:30:48;;;;;;;1.13;1.00;;;17.10;63.30;;;;;;5028558;28;20205;-83
2023/12/16 01:33:19;;;;;;;2.25;1.10;;;17.20;63.40;;;;;;5017464;28;20190;-85
2023/12/16 01:35:51;;;;;;;2.05;1.10;;;17.20;63.70;;;;;;5033639;28;20703;-86
2023/12/16 01:38:23;;;;;;;1.45;1.13;;;17.20;63.60;;;;;;5017657;28;20182;-84
2023/12/16 01:40:49;;;;;;;1.38;1.10;;;17.10;63.70;;;;;;5033689;28;20185;-83
2023/12/16 01:43:19;;;;;;;1.00;0.90;;;17.20;63.70;;;;;;5068146;28;20169;-86
2023/12/16 01:45:50;;;;;;;1.65;1.10;;;17.10;63.80;;;;;;5053598;28;20304;-85
2023/12/16 01:48:21;;;;;;;1.40;1.10;;;17.20;63.70;;;;;;5020790;28;20267;-86
2023/12/16 01:50:53;;;;;;;1.10;1.00;;;17.10;63.90;;;;;;5019273;28;20244;-83
2023/12/16 01:53:24;;;;;;;1.60;1.00;;;17.10;63.70;;;;;;5017405;28;20184;-85
2023/12/16 01:55:54;;;;;;;1.35;1.25;;;17.10;63.80;;;;;;5033694;28;20274;-84
2023/12/16 01:58:22;;;;;;;1.80;1.00;;;17.30;63.60;;;;;;5279218;22;20606;-85
2023/12/16 02:00:50;;;;;;;1.33;1.23;;;17.20;63.80;;;;;;5021606;28;20275;-85
2023/12/16 02:03:17;;;;;;;1.58;1.20;;;17.10;64.00;;;;;;5038294;28;20181;-86
2023/12/16 02:05:45;;;;;;;1.63;1.20;;;17.10;64.00;;;;;;5039143;28;20606;-86
2023/12/16 02:13:03;;;;;;;1.17;0.90;;;17.10;63.60;;;;;;5311454;22;20625;-86
2023/12/16 02:15:29;;;;;;;2.53;1.17;;;17.10;64.70;;;;;;5055038;28;20666;-82
2023/12/16 02:20:22;;;;;;;1.20;1.10;;;17.10;64.00;;;;;;5264172;22;20237;-85
2023/12/16 02:22:48;;;;;;;2.08;1.35;;;17.10;63.90;;;;;;5015340;28;20166;-84
2023/12/16 02:25:14;;;;;;;1.25;0.98;;;17.00;63.70;;;;;;5020073;28;20194;-84
2023/12/16 02:27:45;;;;;;;1.20;1.02;;;17.20;64.70;;;;;;5237649;23;20257;-85
2023/12/16 02:30:11;;;;;;;1.50;1.00;;;17.10;63.80;;;;;;5214296;22;20776;-84
2023/12/16 02:32:37;;;;;;;1.20;1.08;;;17.10;63.60;;;;;;5038695;28;20165;-86
2023/12/16 02:35:04;;;;;;;1.77;1.13;;;17.10;63.90;;;;;;5038711;28;20215;-86
2023/12/16 02:37:31;;;;;;;1.58;1.13;;;17.10;63.70;;;;;;5051475;28;20168;-84
2023/12/16 02:39:57;;;;;;;1.35;1.13;;;17.10;63.60;;;;;;5052446;28;20180;-86
2023/12/16 02:42:22;;;;;;;1.02;0.85;;;17.10;63.60;;;;;;5066322;28;20174;-83
2023/12/16 02:44:48;;;;;;;1.63;1.00;;;17.10;64.00;;;;;;5044690;28;20192;-86
2023/12/16 02:47:21;;;;;;;1.27;1.00;;;17.00;63.80;;;;;;5042940;28;20165;-84
2023/12/16 02:49:48;;;;;;;1.27;0.95;;;17.10;63.70;;;;;;5140042;23;20229;-85
2023/12/16 02:52:18;;;;;;;1.38;0.90;;;17.10;63.50;;;;;;5034701;28;20644;-84
2023/12/16 02:57:10;;;;;;;1.27;0.95;;;17.10;63.70;;;;;;5057061;22;20226;-83
2023/12/16 02:59:36;;;;;;;1.70;1.02;;;17.10;64.10;;;;;;4990289;28;20177;-83
2023/12/16 03:02:02;;;;;;;1.27;0.90;;;17.00;64.00;;;;;;5018347;28;20157;-84
2023/12/16 03:04:28;;;;;;;1.20;1.00;;;17.00;63.80;;;;;;5034772;28;20190;-85
2023/12/16 03:06:54;;;;;;;1.25;0.90;;;17.10;63.90;;;;;;5001668;28;20166;-84
2023/12/16 03:09:20;;;;;;;1.27;1.00;;;17.10;63.60;;;;;;5033440;28;20575;-87
2023/12/16 03:11:45;;;;;;;1.70;1.10;;;17.10;63.80;;;;;;5010787;28;20625;-84
2023/12/16 03:14:11;;;;;;;1.45;1.17;;;17.10;64.00;;;;;;5018168;28;20544;-84
2023/12/16 03:19:09;;;;;;;1.35;0.98;;;17.00;63.70;;;;;;5085658;23;20238;-86
2023/12/16 03:21:36;;;;;;;1.40;1.13;;;17.00;64.00;;;;;;5034657;28;20178;-85
2023/12/16 03:24:03;;;;;;;1.48;1.05;;;17.00;64.00;;;;;;5017912;28;20171;-85
2023/12/16 03:26:29;;;;;;;1.45;1.02;;;17.00;64.00;;;;;;5017932;28;20224;-84
2023/12/16 03:28:55;;;;;;;1.20;1.00;;;16.90;64.00;;;;;;5034161;28;20222;-86
2023/12/16 03:31:21;;;;;;;1.75;1.20;;;17.00;63.90;;;;;;5002469;28;20173;-85
2023/12/16 03:36:13;;;;;;;1.70;1.00;;;17.00;63.90;;;;;;5536002;22;20356;-85
2023/12/16 03:38:41;;;;;;;1.25;1.05;;;17.00;63.80;;;;;;5041725;28;20747;-84
2023/12/16 03:43:36;;;;;;;0.98;0.80;;;17.00;64.00;;;;;;5060359;22;20279;-84
2023/12/16 03:46:02;;;;;;;1.38;1.20;;;17.00;64.90;;;;;;5037424;28;20206;-86
2023/12/16 03:48:28;;;;;;;1.50;1.10;;;17.00;64.00;;;;;;5017062;28;20193;-86
2023/12/16 03:50:55;;;;;;;1.35;1.05;;;17.00;64.10;;;;;;5232765;22;20236;-84
2023/12/16 03:55:46;;;;;;;1.20;1.00;;;17.00;64.00;;;;;;5418895;22;20242;-83
2023/12/16 03:58:12;;;;;;;0.98;0.80;;;17.00;63.60;;;;;;5165486;23;20242;-86
2023/12/16 04:00:38;;;;;;;1.48;1.08;;;17.00;64.20;;;;;;5034578;28;20155;-83
2023/12/16 04:05:33;;;;;;;1.65;1.15;;;17.00;64.10;;;;;;5086563;23;20711;-83
2023/12/16 04:08:00;;;;;;;1.15;0.88;;;16.90;64.30;;;;;;5066428;28;20165;-84
2023/12/16 04:10:26;;;;;;;0.88;0.88;;;16.90;64.30;;;;;;5057153;28;20271;-84
2023/12/16 04:12:52;;;;;;;1.33;0.90;;;17.00;64.40;;;;;;5058236;28;20236;-83
2023/12/16 04:15:18;;;;;;;1.50;1.05;;;16.90;64.00;;;;;;5060301;28;20160;-85
2023/12/16 04:17:46;;;;;;;1.33;0.93;;;16.90;64.10;;;;;;5077366;28;20180;-85
2023/12/16 04:20:12;;;;;;;0.95;0.85;;;17.00;64.00;;;;;;5026373;28;20183;-86
2023/12/16 04:22:41;;;;;;;1.00;0.90;;;16.90;63.90;;;;;;5057047;28;20172;-87
2023/12/16 04:27:47;;;;;;;2.58;1.05;;;17.00;63.90;;;;;;5092486;22;20237;-84
2023/12/16 04:30:15;;;;;;;1.73;1.30;;;17.00;64.00;;;;;;5020580;28;20184;-85
2023/12/16 04:32:41;;;;;;;1.70;1.00;;;16.90;64.00;;;;;;5037318;28;20203;-86
2023/12/16 04:35:10;;;;;;;0.95;0.90;;;17.00;64.10;;;;;;5020017;28;20233;-85
2023/12/16 04:37:36;;;;;;;1.85;1.10;;;16.90;64.00;;;;;;5077837;23;20233;-86
2023/12/16 04:40:06;;;;;;;2.38;0.90;;;16.90;64.30;;;;;;5018706;28;20667;-86
2023/12/16 04:42:32;;;;;;;1.27;0.98;;;16.90;64.10;;;;;;5019716;28;20743;-84
2023/12/16 04:44:58;;;;;;;1.08;0.93;;;16.90;64.00;;;;;;5020078;28;20284;-83
2023/12/16 04:47:24;;;;;;;1.55;1.10;;;16.90;64.10;;;;;;5063707;28;20172;-87
2023/12/16 04:49:55;;;;;;;1.10;1.00;;;16.90;64.20;;;;;;5038519;28;20257;-87
2023/12/16 04:52:23;;;;;;;1.48;1.27;;;16.90;64.10;;;;;;5038926;28;20613;-86
2023/12/16 04:54:49;;;;;;;1.77;0.88;;;16.90;64.30;;;;;;5022938;28;20185;-85
2023/12/16 04:57:15;;;;;;;1.00;0.90;;;16.90;64.20;;;;;;5056581;28;20161;-86
2023/12/16 04:59:40;;;;;;;1.80;1.15;;;16.90;64.40;;;;;;5039414;28;20541;-83
2023/12/16 05:02:06;;;;;;;1.40;1.00;;;16.90;64.30;;;;;;5040064;28;20154;-85
2023/12/16 05:04:32;;;;;;;1.27;1.05;;;16.90;64.30;;;;;;5040736;28;20212;-85
2023/12/16 05:06:58;;;;;;;1.20;0.90;;;16.90;64.30;;;;;;5056497;28;20157;-85
2023/12/16 05:09:24;;;;;;;1.35;1.00;;;16.90;64.10;;;;;;5040235;28;20985;-84
2023/12/16 05:11:50;;;;;;;2.60;1.20;;;16.90;63.90;;;;;;5040038;28;20638;-86
2023/12/16 05:14:17;;;;;;;1.52;1.10;;;16.90;64.20;;;;;;5039943;28;20261;-85
2023/12/16 05:16:42;;;;;;;1.55;1.10;;;16.90;64.00;;;;;;5039565;28;20790;-85
2023/12/16 05:19:09;;;;;;;1.60;1.10;;;16.90;64.30;;;;;;5055507;28;20170;-86
2023/12/16 05:21:35;;;;;;;0.73;0.63;;;16.90;64.30;;;;;;5023763;28;20603;-85
2023/12/16 05:24:01;;;;;;;1.40;0.90;;;16.90;64.30;;;;;;5076371;28;20176;-84
2023/12/16 05:26:31;;;;;;;1.67;1.23;;;16.90;64.30;;;;;;5059397;28;20211;-86
2023/12/16 05:28:57;;;;;;;1.02;0.90;;;16.90;64.30;;;;;;5009740;28;20181;-83
2023/12/16 05:31:23;;;;;;;2.25;0.93;;;16.90;64.30;;;;;;5084274;28;20185;-84
2023/12/16 05:33:49;;;;;;;1.08;0.85;;;16.80;64.20;;;;;;5056252;28;20608;-83
2023/12/16 05:36:15;;;;;;;1.35;1.10;;;16.90;64.30;;;;;;5038965;28;20679;-86
2023/12/16 05:38:42;;;;;;;1.73;0.93;;;16.80;64.30;;;;;;5056014;28;20699;-84
2023/12/16 05:41:08;;;;;;;1.88;1.10;;;16.90;64.30;;;;;;5046004;28;20182;-85
2023/12/16 05:45:59;;;;;;;1.08;0.98;;;16.90;64.10;;;;;;5360012;22;20319;-86
2023/12/16 05:48:26;;;;;;;1.20;0.90;;;16.90;64.30;;;;;;5002434;28;20185;-85
2023/12/16 05:50:51;;;;;;;2.10;1.10;;;16.90;64.30;;;;;;5035967;28;20166;-86
2023/12/16 05:53:18;;;;;;;1.38;1.00;;;16.90;64.00;;;;;;5025559;28;20690;-86
2023/12/16 05:55:47;;;;;;;1.23;1.10;;;16.80;64.20;;;;;;5045153;28;20173;-84
2023/12/16 05:58:15;;;;;;;1.17;0.90;;;16.90;64.20;;;;;;5039578;28;20211;-83
2023/12/16 06:00:41;;;;;;;0.88;0.80;;;16.90;64.30;;;;;;5237549;22;20232;-83
2023/12/16 06:03:07;;;;;;;0.85;0.80;;;16.80;64.30;;;;;;5038833;28;20227;-85
2023/12/16 06:05:33;;;;;;;1.40;0.95;;;16.80;64.20;;;;;;5051285;28;20724;-85
2023/12/16 06:07:59;;;;;;;1.40;0.90;;;16.80;64.10;;;;;;5019453;28;20162;-85
2023/12/16 06:10:25;;;;;;;1.70;1.08;;;16.80;64.10;;;;;;5003089;28;20158;-85
2023/12/16 06:12:51;;;;;;;1.20;0.90;;;16.90;64.00;;;;;;5039357;28;20574;-85
2023/12/16 06:15:17;;;;;;;1.40;1.17;;;16.90;64.00;;;;;;5055499;28;20162;-84
2023/12/16 06:20:19;;;;;;;1.38;0.88;;;16.90;64.10;;;;;;5211765;22;20304;-85
2023/12/16 06:22:44;;;;;;;1.50;1.30;;;16.90;64.10;;;;;;5176768;23;20225;-84
2023/12/16 06:25:11;;;;;;;1.40;1.00;;;16.90;64.10;;;;;;5074750;28;20294;-82
2023/12/16 06:27:37;;;;;;;0.98;0.90;;;16.90;64.10;;;;;;5060037;28;20236;-82
2023/12/16 06:30:04;;;;;;;1.23;1.00;;;16.80;64.10;;;;;;5046440;28;20630;-84
2023/12/16 06:32:30;;;;;;;1.10;1.00;;;16.90;64.10;;;;;;5071272;28;20649;-84
2023/12/16 06:34:55;;;;;;;1.35;1.10;;;16.90;64.10;;;;;;5066540;28;20184;-82
2023/12/16 06:37:21;;;;;;;1.10;0.93;;;16.80;63.90;;;;;;5050650;28;20541;-85
2023/12/16 06:39:47;;;;;;;1.77;1.00;;;16.90;64.00;;;;;;5053089;28;20169;-82
2023/12/16 06:42:14;;;;;;;1.42;1.20;;;16.90;64.10;;;;;;5073134;28;20173;-83
2023/12/16 06:44:40;;;;;;;2.20;0.93;;;16.90;63.90;;;;;;5045536;28;20216;-85
2023/12/16 06:47:06;;;;;;;1.10;1.00;;;16.80;63.90;;;;;;5071911;28;20195;-82
2023/12/16 06:49:33;;;;;;;1.10;0.88;;;16.80;63.90;;;;;;5088372;28;20176;-84
2023/12/16 06:52:00;;;;;;;1.60;0.93;;;16.90;64.00;;;;;;5063785;28;20191;-83
2023/12/16 06:54:25;;;;;;;1.38;0.95;;;16.90;63.60;;;;;;5055525;28;20398;-83
2023/12/16 06:56:51;;;;;;;1.67;1.10;;;16.90;63.60;;;;;;5084545;28;20697;-86
2023/12/16 06:59:18;;;;;;;1.70;1.00;;;16.80;63.60;;;;;;5055692;28;20653;-83
2023/12/16 07:01:44;;;;;;;1.75;1.00;;;16.90;63.50;;;;;;5091145;28;20388;-87
2023/12/16 07:04:09;;;;;;;1.45;1.08;;;16.90;63.50;;;;;;5067460;28;20237;-84
2023/12/16 07:09:01;;;;;;;1.92;1.10;;;16.90;63.60;;;;;;6056775;22;20219;-81
2023/12/16 07:11:27;;;;;;;1.67;1.00;;;16.90;63.80;;;;;;5062818;28;20192;-86
2023/12/16 07:16:30;;;;;;;1.58;1.10;;;16.90;63.90;;;;;;5826810;22;20243;-82
2023/12/16 07:19:00;;;;;;;1.23;1.00;;;16.90;63.80;;;;;;5105848;28;20171;-85
2023/12/16 07:21:27;;;;;;;1.10;0.80;;;16.90;63.80;;;;;;5034899;28;20176;-85
2023/12/16 07:23:54;;;;;;;1.80;1.20;;;16.90;63.50;;;;;;5084858;28;20141;-83
2023/12/16 07:26:20;;;;;;;1.60;1.00;;;16.90;63.50;;;;;;5068788;28;20660;-81
2023/12/16 07:28:50;;;;;;;1.77;1.00;;;16.90;63.50;;;;;;5085723;28;20545;-82
2023/12/16 07:31:19;;;;;;;2.22;0.90;;;16.90;63.20;;;;;;5103486;28;20164;-83
2023/12/16 07:33:47;;;;;;;1.42;0.90;;;17.00;63.30;;;;;;5048763;28;20195;-83
2023/12/16 07:36:15;;;;;;;2.35;0.90;;;17.00;63.40;;;;;;5065275;28;20157;-85
2023/12/16 07:38:41;;;;;;;1.42;1.00;;;17.00;63.50;;;;;;5049272;28;20192;-82
2023/12/16 07:41:10;;;;;;;4.65;1.13;;;17.10;63.40;;;;;;5086044;28;20156;-83
2023/12/16 07:43:36;;;;;;;8.15;1.50;;;17.00;63.40;;;;;;5085623;28;20160;-83
2023/12/16 07:46:03;;;;;;;3.70;1.27;;;17.00;63.40;;;;;;5102067;28;20645;-83
2023/12/16 07:48:31;;;;;;;4.38;1.10;;;17.10;63.10;;;;;;5068477;28;20167;-82
2023/12/16 07:51:15;;;;;;;3.60;1.15;;;17.10;63.00;;;;;;5084740;28;20148;-83
2023/12/16 07:53:43;;;;;;;2.22;1.15;;;17.00;63.00;;;;;;5069689;28;20164;-85
2023/12/16 07:56:28;;;;;;;6.85;1.40;;;17.00;62.90;;;;;;5091126;28;20638;-85
2023/12/16 07:59:02;;;;;;;4.68;1.30;;;17.10;63.20;;;;;;5075577;28;20184;-83
2023/12/16 08:01:37;;;;;;;1.20;0.85;;;17.00;63.00;;;;;;5095272;28;20582;-85
2023/12/16 08:04:27;;;;;;;3.22;1.10;;;17.10;62.70;;;;;;5062010;28;20160;-85
2023/12/16 08:07:03;;;;;;;;;;;;;;;;;;;;;
2023/12/16 08:09:29;;;;;;;2.83;1.00;;;17.30;62.50;;;;;;5058415;28;20188;-83
2023/12/16 08:11:58;;;;;;;5.75;1.20;;;17.30;62.10;;;;;;5090670;28;20156;-84
2023/12/16 08:14:25;;;;;;;2.58;1.20;;;17.30;62.10;;;;;;5098501;28;20176;-82
2023/12/16 08:16:51;;;;;;;1.75;0.90;;;17.30;61.40;;;;;;5087927;28;20248;-83
2023/12/16 08:19:16;;;;;;;3.45;1.05;;;17.40;61.80;;;;;;5042184;28;20170;-83
2023/12/16 08:21:42;;;;;;;2.35;0.88;;;17.50;61.30;;;;;;5073388;28;20184;-85
2023/12/16 08:24:09;;;;;;;4.05;1.20;;;17.40;61.50;;;;;;5024340;28;20177;-85
2023/12/16 08:26:35;;;;;;;3.13;1.10;;;17.40;61.00;;;;;;5025974;28;20193;-85
2023/12/16 08:29:01;;;;;;;3.75;1.05;;;17.40;61.00;;;;;;5062059;28;20160;-83
2023/12/16 08:31:27;;;;;;;1.58;1.00;;;17.50;60.80;;;;;;5096581;28;20149;-85
2023/12/16 08:37:05;;;;;;;3.47;1.20;;;17.50;61.00;;;;;;4974084;28;20184;-83
2023/12/16 08:39:31;;;;;;;4.05;1.30;;;17.50;61.70;;;;;;4971401;28;20204;-84
2023/12/16 08:41:59;;;;;;;6.65;1.25;;;17.50;62.10;;;;;;4955371;29;20571;-86
2023/12/16 08:44:42;;;;;;;2.25;1.17;;;17.50;61.60;;;;;;4941154;29;20162;-85
2023/12/16 08:47:11;;;;;;;4.82;1.20;;;17.40;61.90;;;;;;4942992;29;20682;-85
2023/12/16 08:50:22;;;;;;;2.80;1.23;;;17.50;61.70;;;;;;4940401;29;20180;-85
2023/12/16 08:52:55;;;;;;;3.10;1.15;;;17.50;61.20;;;;;;4946213;29;20220;-84
2023/12/16 08:55:40;;;;;;;4.28;0.98;;;17.50;61.30;;;;;;4941810;29;20270;-87
2023/12/16 09:02:05;;;;;;;;;;;;;;;;;;;;;
2023/12/16 09:04:34;;;;;;;2.65;1.17;;;17.60;61.30;;;;;;4820140;29;20285;-84
2023/12/16 09:07:16;;;;;;;3.50;1.17;;;17.60;61.90;;;;;;4806579;29;20248;-84
2023/12/16 09:10:20;;;;;;;3.53;1.20;;;17.70;61.20;;;;;;4861868;29;20192;-84
2023/12/16 09:13:05;;;;;;;3.13;1.10;;;17.70;60.60;;;;;;4806300;29;20764;-83
2023/12/16 09:15:40;;;;;;;5.30;1.30;;;17.80;61.10;;;;;;4790199;29;20228;-85
2023/12/16 09:18:19;;;;;;;;;;;;;;;;;;;;;
2023/12/16 09:20:47;;;;;;;7.38;1.30;;;17.80;61.00;;;;;;4831566;29;20287;-82
2023/12/16 09:23:16;;;;;;;4.93;1.10;;;17.70;61.40;;;;;;4845223;29;20185;-83
2023/12/16 09:25:53;;;;;;;3.22;0.88;;;17.70;61.30;;;;;;4846432;29;20231;-83
2023/12/16 09:28:28;;;;;;;7.18;1.40;;;17.70;61.30;;;;;;4868234;29;20194;-83
2023/12/16 09:34:21;;;;;;;;;;;;;;;;;;;;;
2023/12/16 09:37:07;;;;;;;3.17;1.33;;;17.70;61.60;;;;;;4913514;29;20277;-86
2023/12/16 09:39:42;;;;;;;5.90;1.17;;;17.70;61.40;;;;;;4940551;29;20193;-84
2023/12/16 09:42:11;;;;;;;5.68;1.13;;;17.80;61.40;;;;;;4927437;29;20184;-85
2023/12/16 09:44:57;;;;;;;6.07;1.20;;;17.80;61.40;;;;;;4922611;29;20563;-86
2023/12/16 09:47:56;;;;;;;;;;;;;;;;;;;;;
2023/12/16 09:51:09;;;;;;;3.33;1.20;;;17.90;61.60;;;;;;4922063;29;20261;-85
2023/12/16 09:54:46;;;;;;;7.40;1.33;;;17.90;61.20;;;;;;4941419;29;20693;-84
2023/12/16 10:00:54;;;;;;;7.75;1.02;;;17.90;61.40;;;;;;4876718;29;20191;-84
2023/12/16 10:07:42;;;;;;;9.77;1.38;;;18.00;62.60;;;;;;4854588;29;20221;-86
2023/12/16 10:10:36;;;;;;;9.10;1.40;;;18.00;62.10;;;;;;4814000;29;20194;-87
2023/12/16 10:13:07;;;;;;;3.97;1.02;;;18.00;61.90;;;;;;4816077;29;20187;-85
2023/12/16 10:15:42;;;;;;;5.63;1.15;;;18.00;62.10;;;;;;4776977;30;20199;-84
2023/12/16 10:18:44;;;;;;;;;;;;;;;;;;;;;
2023/12/16 10:21:16;;;;;;;3.97;1.13;;;18.10;62.80;;;;;;4781716;30;20315;-85
2023/12/16 10:24:03;;;;;;;7.40;1.45;;;18.00;62.70;;;;;;4777247;30;20811;-85
2023/12/16 10:26:35;;;;;;;4.38;1.38;;;18.00;62.70;;;;;;4759536;30;20287;-85
2023/12/16 10:29:05;;;;;;;6.95;1.30;;;18.10;63.00;;;;;;4744405;30;20195;-83
2023/12/16 10:31:39;;;;;;;3.58;0.85;;;18.00;63.40;;;;;;4769977;30;20246;-85
2023/12/16 10:34:17;;;;;;;5.20;1.20;;;18.00;63.60;;;;;;4795896;29;20205;-84
2023/12/16 10:36:47;;;;;;;5.05;1.40;;;18.10;64.20;;;;;;4791381;29;20325;-86
2023/12/16 10:39:16;;;;;;;4.38;1.20;;;18.10;64.30;;;;;;4788168;29;20250;-84
2023/12/16 10:41:50;;;;;;;1.95;1.10;;;18.10;64.60;;;;;;4791220;29;20183;-84
2023/12/16 10:44:17;;;;;;;3.53;1.02;;;18.10;65.00;;;;;;4874226;29;20496;-85
2023/12/16 10:46:45;;;;;;;3.47;1.08;;;18.10;64.70;;;;;;4884094;29;20720;-84
2023/12/16 10:49:18;;;;;;;6.90;1.35;;;18.10;64.80;;;;;;4896240;28;20188;-85
2023/12/16 10:51:44;;;;;;;4.53;1.10;;;18.10;65.10;;;;;;4941083;29;20178;-84
2023/12/16 10:54:26;;;;;;;2.35;1.20;;;18.20;65.20;;;;;;4925749;29;20277;-84
2023/12/16 10:57:23;;;;;;;5.53;1.10;;;18.20;66.30;;;;;;4902733;29;20191;-84
2023/12/16 11:00:00;;;;;;;4.28;1.42;;;18.20;66.70;;;;;;4909481;29;20609;-83
2023/12/16 11:02:27;;;;;;;6.63;1.55;;;18.30;66.60;;;;;;4939965;28;20250;-84
2023/12/16 11:05:25;;;;;;;3.58;1.27;;;18.30;66.40;;;;;;5014571;28;20257;-84
2023/12/16 11:08:20;;;;;;;5.03;1.23;;;18.20;66.50;;;;;;4951959;28;20229;-83
2023/12/16 11:10:49;;;;;;;5.03;1.10;;;18.20;65.80;;;;;;4913325;29;20188;-85
2023/12/16 11:13:20;;;;;;;5.88;1.50;;;18.20;65.60;;;;;;4942999;29;21124;-83
2023/12/16 11:16:48;;;;;;;5.57;1.00;;;18.20;66.50;;;;;;4956916;28;20196;-87
2023/12/16 11:19:55;;;;;;;6.05;1.17;;;18.20;65.10;;;;;;4898461;29;20198;-88
2023/12/16 11:22:24;;;;;;;5.03;1.10;;;18.20;65.30;;;;;;4899284;29;20326;-86
2023/12/16 11:25:04;;;;;;;3.25;1.00;;;18.30;65.70;;;;;;4881685;29;20258;-85
2023/12/16 11:27:34;;;;;;;3.33;0.70;;;18.20;65.40;;;;;;4876760;29;20260;-85
2023/12/16 11:30:17;;;;;;;4.50;1.35;;;18.20;65.20;;;;;;4889925;29;20190;-86
2023/12/16 11:32:54;;;;;;;4.85;1.33;;;18.30;65.40;;;;;;4906611;29;20269;-87
2023/12/16 11:35:53;;;;;;;2.80;1.30;;;18.20;65.80;;;;;;4891291;29;20790;-87
2023/12/16 11:38:38;;;;;;;2.58;1.13;;;18.20;65.60;;;;;;4924266;29;20831;-86
2023/12/16 11:41:04;;;;;;;4.00;1.10;;;18.20;65.80;;;;;;4925748;28;20184;-86
2023/12/16 11:43:49;;;;;;;4.72;1.40;;;18.20;65.60;;;;;;4972906;28;20173;-86
2023/12/16 11:46:42;;;;;;;5.05;1.08;;;18.30;65.90;;;;;;5008330;28;20371;-85
2023/12/16 11:49:10;;;;;;;3.33;1.10;;;18.20;66.50;;;;;;4982654;28;20672;-85
2023/12/16 11:51:40;;;;;;;1.70;1.00;;;18.20;66.20;;;;;;4997257;28;20253;-85
2023/12/16 11:54:15;;;;;;;3.92;0.90;;;18.30;66.40;;;;;;5079822;28;20153;-85
2023/12/16 11:56:53;;;;;;;1.77;0.90;;;18.30;66.10;;;;;;5053646;28;20203;-86
2023/12/16 11:59:26;;;;;;;2.22;1.00;;;18.20;66.70;;;;;;5085741;28;20644;-85
2023/12/16 12:01:55;;;;;;;3.80;0.90;;;18.20;66.50;;;;;;5086781;28;20497;-87
2023/12/16 12:04:25;;;;;;;8.27;1.10;;;18.30;66.70;;;;;;5088404;28;20160;-90
2023/12/16 12:06:53;;;;;;;4.45;1.40;;;18.20;66.60;;;;;;5104521;28;20156;-85
2023/12/16 12:09:29;;;;;;;3.50;1.25;;;18.20;67.00;;;;;;5100072;28;20144;-87
2023/12/16 12:12:05;;;;;;;3.92;1.00;;;18.30;67.40;;;;;;5038573;28;20179;-85
2023/12/16 12:14:32;;;;;;;7.53;1.20;;;18.30;67.40;;;;;;5036562;28;20196;-84
2023/12/16 12:16:59;;;;;;;4.75;1.02;;;18.30;67.10;;;;;;5047852;28;20206;-86
2023/12/16 12:19:24;;;;;;;3.92;0.88;;;18.30;67.70;;;;;;5019224;28;20298;-85
2023/12/16 12:21:55;;;;;;;1.95;0.90;;;18.30;67.20;;;;;;5021033;28;20179;-86
2023/12/16 12:24:22;;;;;;;3.80;1.33;;;18.30;66.30;;;;;;5001215;28;20186;-86
2023/12/16 12:26:51;;;;;;;5.80;1.10;;;18.30;66.50;;;;;;5000520;28;20211;-85
2023/12/16 12:29:18;;;;;;;3.95;1.10;;;18.30;66.70;;;;;;5007628;28;20182;-85
2023/12/16 12:31:45;;;;;;;2.63;1.20;;;18.30;67.60;;;;;;5021534;28;20255;-85
2023/12/16 12:34:18;;;;;;;3.08;0.95;;;18.30;66.70;;;;;;5020254;28;20226;-86
2023/12/16 12:36:46;;;;;;;3.42;1.02;;;18.30;66.70;;;;;;5022355;28;20678;-85
2023/12/16 12:39:16;;;;;;;4.47;1.13;;;18.30;66.30;;;;;;5048768;28;20201;-86
2023/12/16 12:41:42;;;;;;;5.82;1.15;;;18.30;66.80;;;;;;5041322;28;20158;-86
2023/12/16 12:44:11;;;;;;;3.88;0.90;;;18.30;66.80;;;;;;5043508;28;20227;-86
2023/12/16 12:46:48;;;;;;;3.20;1.17;;;18.30;66.30;;;;;;5043175;28;20224;-86
2023/12/16 12:49:14;;;;;;;3.42;1.60;;;18.30;67.20;;;;;;5076622;28;20175;-86
2023/12/16 12:51:55;;;;;;;2.63;0.90;;;18.30;66.50;;;;;;5077816;28;20196;-87
2023/12/16 12:54:21;;;;;;;1.77;1.02;;;18.30;66.90;;;;;;5088286;28;20180;-85
2023/12/16 12:56:50;;;;;;;3.65;0.95;;;18.30;66.60;;;;;;5068530;28;20199;-85
2023/12/16 12:59:22;;;;;;;3.15;0.80;;;18.40;66.00;;;;;;5061487;28;20169;-86
2023/12/16 13:01:56;;;;;;;4.20;1.20;;;18.40;66.30;;;;;;5059737;28;20170;-86
2023/12/16 13:04:22;;;;;;;6.10;1.13;;;18.30;67.30;;;;;;5015854;28;20277;-87
2023/12/16 13:06:48;;;;;;;4.50;1.20;;;18.30;66.70;;;;;;5059475;28;20323;-86
2023/12/16 13:09:13;;;;;;;4.22;1.20;;;18.30;67.40;;;;;;5091168;28;20184;-84
2023/12/16 13:11:39;;;;;;;2.80;1.00;;;18.30;67.60;;;;;;5055457;28;20161;-85
2023/12/16 13:14:08;;;;;;;4.30;1.10;;;18.30;67.20;;;;;;5073471;28;20176;-86
2023/12/16 13:16:36;;;;;;;4.95;1.08;;;18.30;67.10;;;;;;5060300;28;20165;-86
2023/12/16 13:19:02;;;;;;;3.78;0.95;;;18.30;67.70;;;;;;5075583;28;20541;-85
2023/12/16 13:21:29;;;;;;;2.65;0.93;;;18.30;67.60;;;;;;5073412;28;20242;-85
2023/12/16 13:23:59;;;;;;;4.07;0.95;;;18.30;67.90;;;;;;5045178;28;20254;-85
2023/12/16 13:26:25;;;;;;;4.95;1.00;;;18.20;67.00;;;;;;5043145;28;20258;-85
2023/12/16 13:28:51;;;;;;;1.90;0.90;;;18.30;67.20;;;;;;5097463;28;20204;-86
2023/12/16 13:31:17;;;;;;;1.30;0.90;;;18.20;65.40;;;;;;5079854;28;20557;-85
2023/12/16 13:33:43;;;;;;;11.20;1.38;;;18.30;66.00;;;;;;5090621;28;20176;-85
2023/12/16 13:36:09;;;;;;;1.77;1.00;;;18.30;65.60;;;;;;5069799;27;20272;-88
2023/12/16 13:38:36;;;;;;;3.55;1.17;;;18.20;66.00;;;;;;5120164;27;20147;-85
2023/12/16 13:41:03;;;;;;;3.65;0.90;;;18.20;66.60;;;;;;5085673;28;20192;-86
2023/12/16 13:43:29;;;;;;;1.63;0.98;;;18.20;66.30;;;;;;5021312;28;20631;-84
2023/12/16 13:46:00;;;;;;;4.93;1.00;;;18.20;66.90;;;;;;5033212;28;20217;-85
2023/12/16 13:48:26;;;;;;;5.13;1.15;;;18.30;66.90;;;;;;5022570;28;20200;-84
2023/12/16 13:50:52;;;;;;;3.28;1.10;;;18.20;67.70;;;;;;5023095;28;20181;-85
2023/12/16 13:53:18;;;;;;;1.70;0.70;;;18.20;67.90;;;;;;5023790;28;20177;-86
2023/12/16 13:55:44;;;;;;;4.05;1.20;;;18.20;67.60;;;;;;5025449;28;20177;-87
2023/12/16 13:58:15;;;;;;;1.55;0.93;;;18.10;66.70;;;;;;5041680;28;20231;-85
2023/12/16 14:01:23;;;;;;;;;;;;;;;;;;;;;
2023/12/16 14:03:50;;;;;;;2.33;1.10;;;18.20;67.00;;;;;;4909166;29;20252;-87
2023/12/16 14:06:16;;;;;;;4.72;0.90;;;18.20;66.80;;;;;;4941112;29;20240;-86
2023/12/16 14:08:44;;;;;;;5.57;1.00;;;18.20;67.60;;;;;;4943679;29;20178;-86